PWSweather.com
Personal Weather Stations
Station Observations
KILDUNLA3
Devonshire, Dunlap, IL 61525

DevonshireDunlap, IL 61525

Lat: 40.82881546, Lon: -89.62155914

Elevation: 758

Station Type: Oregon Scientific WMR100

http://jimroal.com

Latest ConditionsUpdated 4:53:18 AM CDT Thursday, Jul 18, 2019
Currently Today's Max Today's Min Today's Average
Temperature 73.2°F22.9°C 73.8°F23.2°C 72.0°F22.2°C 72.9°F22.7°C
Dew Point 60.4°F15.8°C 63.6°F17.6°C 60.4°F15.8°C 62.2°F16.8°C
Winds 2.9 mph S4.7 kmh S 3.6 mph -5.8 kmh - - 2.0 mph 3.2 kmh
Wind Gusts 6.5 mph10.5 kmh 7.2 mph11.6 kmh - -
Humidity 64% 71% 64% 69%
Pressure 29.78 in1008.5 mb 29.81 in1009.5 mb 29.77 in1008.1 mb -
Hour Temp Dew Point Humidity Winds Wind Gusts Pressure Precip Precip Rate Daily Precip Total
04:53 AM 73.2°F22.9°C 60.4°F15.8°C 64% 2.9 mph S4.7 kmh S 6.5 mph10.5 kmh 29.78 in1008.5 mb 0.00 in0.0 mm 0.00 in0.0 mm 0.00 in0.0 mm
04:48 AM 73.2°F22.9°C 60.4°F15.8°C 64% 2.3 mph S3.7 kmh S 6.3 mph10.1 kmh 29.78 in1008.5 mb 0.00 in0.0 mm 0.00 in0.0 mm 0.00 in0.0 mm
04:43 AM 73.2°F22.9°C 60.4°F15.8°C 64% 2.9 mph S4.7 kmh S 6.3 mph10.1 kmh 29.78 in1008.5 mb 0.00 in0.0 mm 0.00 in0.0 mm 0.00 in0.0 mm
04:38 AM 73.2°F22.9°C 60.4°F15.8°C 64% 2.3 mph S3.7 kmh S 4.7 mph7.6 kmh 29.78 in1008.5 mb 0.00 in0.0 mm 0.00 in0.0 mm 0.00 in0.0 mm
04:33 AM 73.2°F22.9°C 60.4°F15.8°C 64% 2.2 mph S3.5 kmh S 7.2 mph11.6 kmh 29.78 in1008.5 mb 0.00 in0.0 mm 0.00 in0.0 mm 0.00 in0.0 mm
04:28 AM 73.2°F22.9°C 60.9°F16.1°C 65% 3.6 mph S5.8 kmh S 7.2 mph11.6 kmh 29.77 in1008.1 mb 0.00 in0.0 mm 0.00 in0.0 mm 0.00 in0.0 mm
04:23 AM 73.2°F22.9°C 60.9°F16.1°C 65% 1.8 mph S2.9 kmh S 6.0 mph9.7 kmh 29.78 in1008.5 mb 0.00 in0.0 mm 0.00 in0.0 mm 0.00 in0.0 mm
04:18 AM 73.2°F22.9°C 60.9°F16.1°C 65% 2.6 mph S4.2 kmh S 6.7 mph10.8 kmh 29.78 in1008.5 mb 0.00 in0.0 mm 0.00 in0.0 mm 0.00 in0.0 mm
04:13 AM 73.2°F22.9°C 60.9°F16.1°C 65% 3.0 mph S4.8 kmh S 6.7 mph10.8 kmh 29.78 in1008.5 mb 0.00 in0.0 mm 0.00 in0.0 mm 0.00 in0.0 mm
04:08 AM 73.2°F22.9°C 61.0°F16.1°C 66% 2.7 mph SSW4.3 kmh SSW 6.3 mph10.1 kmh 29.78 in1008.5 mb 0.00 in0.0 mm 0.00 in0.0 mm 0.00 in0.0 mm
04:03 AM 73.2°F22.9°C 61.4°F16.3°C 66% 2.4 mph SSE3.9 kmh SSE 6.0 mph9.7 kmh 29.78 in1008.5 mb 0.00 in0.0 mm 0.00 in0.0 mm 0.00 in0.0 mm
03:58 AM 73.2°F22.9°C 61.4°F16.3°C 66% 2.9 mph S4.7 kmh S 5.4 mph8.7 kmh 29.79 in1008.8 mb 0.00 in0.0 mm 0.00 in0.0 mm 0.00 in0.0 mm
03:53 AM 73.2°F22.9°C 61.5°F16.4°C 67% 2.2 mph S3.5 kmh S 7.2 mph11.6 kmh 29.79 in1008.8 mb 0.00 in0.0 mm 0.00 in0.0 mm 0.00 in0.0 mm
03:48 AM 73.2°F22.9°C 61.9°F16.6°C 68% 2.9 mph S4.7 kmh S 7.2 mph11.6 kmh 29.79 in1008.8 mb 0.00 in0.0 mm 0.00 in0.0 mm 0.00 in0.0 mm
03:43 AM 73.1°F22.8°C 62.0°F16.7°C 68% 3.2 mph S5.1 kmh S 6.3 mph10.1 kmh 29.79 in1008.8 mb 0.00 in0.0 mm 0.00 in0.0 mm 0.00 in0.0 mm
03:38 AM 73.0°F22.8°C 62.1°F16.7°C 69% 3.1 mph S5.0 kmh S 6.3 mph10.1 kmh 29.79 in1008.8 mb 0.00 in0.0 mm 0.00 in0.0 mm 0.00 in0.0 mm
03:33 AM 72.9°F22.7°C 62.3°F16.8°C 69% 2.9 mph S4.7 kmh S 7.2 mph11.6 kmh 29.79 in1008.8 mb 0.00 in0.0 mm 0.00 in0.0 mm 0.00 in0.0 mm
03:28 AM 72.7°F22.6°C 62.3°F16.8°C 70% 3.2 mph S5.1 kmh S 7.2 mph11.6 kmh 29.79 in1008.8 mb 0.00 in0.0 mm 0.00 in0.0 mm 0.00 in0.0 mm
03:23 AM 72.5°F22.5°C 62.4°F16.9°C 70% 3.2 mph SW5.1 kmh SW 4.3 mph6.9 kmh 29.78 in1008.5 mb 0.00 in0.0 mm 0.00 in0.0 mm 0.00 in0.0 mm
03:18 AM 72.4°F22.4°C 62.5°F16.9°C 71% 2.8 mph S4.5 kmh S 4.3 mph6.9 kmh 29.78 in1008.5 mb 0.00 in0.0 mm 0.00 in0.0 mm 0.00 in0.0 mm
03:13 AM 72.3°F22.4°C 62.4°F16.9°C 71% 2.8 mph S4.5 kmh S 5.6 mph9.0 kmh 29.78 in1008.5 mb 0.00 in0.0 mm 0.00 in0.0 mm 0.00 in0.0 mm
03:08 AM 72.2°F22.3°C 62.3°F16.8°C 71% 2.6 mph S4.2 kmh S 5.6 mph9.0 kmh 29.79 in1008.8 mb 0.00 in0.0 mm 0.00 in0.0 mm 0.00 in0.0 mm
03:03 AM 72.1°F22.3°C 62.2°F16.8°C 71% 2.3 mph S3.7 kmh S 5.6 mph9.0 kmh 29.79 in1008.8 mb 0.00 in0.0 mm 0.00 in0.0 mm 0.00 in0.0 mm
02:58 AM 72.1°F22.3°C 62.2°F16.8°C 71% 2.8 mph S4.5 kmh S 5.8 mph9.3 kmh 29.79 in1008.8 mb 0.00 in0.0 mm 0.00 in0.0 mm 0.00 in0.0 mm
02:53 AM 72.0°F22.2°C 62.1°F16.7°C 71% 2.6 mph S4.2 kmh S 5.8 mph9.3 kmh 29.79 in1008.8 mb 0.00 in0.0 mm 0.00 in0.0 mm 0.00 in0.0 mm
02:48 AM 72.0°F22.2°C 62.1°F16.7°C 71% 2.4 mph S3.9 kmh S 4.9 mph7.9 kmh 29.79 in1008.8 mb 0.00 in0.0 mm 0.00 in0.0 mm 0.00 in0.0 mm
02:43 AM 72.0°F22.2°C 62.1°F16.7°C 71% 2.6 mph SSW4.2 kmh SSW 4.9 mph7.9 kmh 29.79 in1008.8 mb 0.00 in0.0 mm 0.00 in0.0 mm 0.00 in0.0 mm
02:38 AM 72.0°F22.2°C 62.1°F16.7°C 71% 0.9 mph SE1.4 kmh SE 3.6 mph5.8 kmh 29.79 in1008.8 mb 0.00 in0.0 mm 0.00 in0.0 mm 0.00 in0.0 mm
02:33 AM 72.0°F22.2°C 62.1°F16.7°C 71% 0.3 mph SSE0.5 kmh SSE 3.6 mph5.8 kmh 29.79 in1008.8 mb 0.00 in0.0 mm 0.00 in0.0 mm 0.00 in0.0 mm
02:28 AM 72.0°F22.2°C 62.1°F16.7°C 71% 1.8 mph S2.9 kmh S 3.8 mph6.1 kmh 29.79 in1008.8 mb 0.00 in0.0 mm 0.00 in0.0 mm 0.00 in0.0 mm
02:23 AM 72.0°F22.2°C 61.6°F16.4°C 70% 1.4 mph S2.3 kmh S 4.9 mph7.9 kmh 29.78 in1008.5 mb 0.00 in0.0 mm 0.00 in0.0 mm 0.00 in0.0 mm
02:18 AM 72.1°F22.3°C 61.7°F16.5°C 70% 0.8 mph S1.3 kmh S 4.9 mph7.9 kmh 29.78 in1008.5 mb 0.00 in0.0 mm 0.00 in0.0 mm 0.00 in0.0 mm
02:13 AM 72.2°F22.3°C 61.9°F16.6°C 70% 0.4 mph S0.6 kmh S 2.7 mph4.3 kmh 29.78 in1008.5 mb 0.00 in0.0 mm 0.00 in0.0 mm 0.00 in0.0 mm
02:08 AM 72.5°F22.5°C 62.1°F16.7°C 70% Calm Calm 2.9 mph4.7 kmh 29.78 in1008.5 mb 0.00 in0.0 mm 0.00 in0.0 mm 0.00 in0.0 mm
02:03 AM 72.7°F22.6°C 62.3°F16.8°C 70% 1.1 mph S1.8 kmh S 2.9 mph4.7 kmh 29.79 in1008.8 mb 0.00 in0.0 mm 0.00 in0.0 mm 0.00 in0.0 mm
01:58 AM 72.7°F22.6°C 62.3°F16.8°C 70% 1.3 mph SSE2.1 kmh SSE 2.9 mph4.7 kmh 29.79 in1008.8 mb 0.00 in0.0 mm 0.00 in0.0 mm 0.00 in0.0 mm
01:53 AM 72.7°F22.6°C 62.3°F16.8°C 70% 1.4 mph SSE2.3 kmh SSE 2.7 mph4.3 kmh 29.79 in1008.8 mb 0.00 in0.0 mm 0.00 in0.0 mm 0.00 in0.0 mm
01:48 AM 72.7°F22.6°C 62.3°F16.8°C 70% 1.3 mph S2.1 kmh S 2.5 mph4.0 kmh 29.79 in1008.8 mb 0.00 in0.0 mm 0.00 in0.0 mm 0.00 in0.0 mm
01:43 AM 72.8°F22.7°C 62.4°F16.9°C 70% 0.8 mph S1.3 kmh S 3.1 mph5.0 kmh 29.79 in1008.8 mb 0.00 in0.0 mm 0.00 in0.0 mm 0.00 in0.0 mm
01:38 AM 72.9°F22.7°C 62.5°F16.9°C 70% 1.9 mph S3.1 kmh S 3.1 mph5.0 kmh 29.79 in1008.8 mb 0.00 in0.0 mm 0.00 in0.0 mm 0.00 in0.0 mm
01:33 AM 73.0°F22.8°C 63.0°F17.2°C 71% 0.1 mph SE0.2 kmh SE 2.9 mph4.7 kmh 29.80 in1009.1 mb 0.00 in0.0 mm 0.00 in0.0 mm 0.00 in0.0 mm
01:28 AM 73.0°F22.8°C 63.1°F17.3°C 71% 0.1 mph S0.2 kmh S 2.9 mph4.7 kmh 29.80 in1009.1 mb 0.00 in0.0 mm 0.00 in0.0 mm 0.00 in0.0 mm
01:23 AM 73.1°F22.8°C 63.1°F17.3°C 71% 1.6 mph S2.6 kmh S 2.9 mph4.7 kmh 29.80 in1009.1 mb 0.00 in0.0 mm 0.00 in0.0 mm 0.00 in0.0 mm
01:18 AM 73.2°F22.9°C 63.3°F17.4°C 71% 0.8 mph S1.3 kmh S 3.1 mph5.0 kmh 29.81 in1009.5 mb 0.00 in0.0 mm 0.00 in0.0 mm 0.00 in0.0 mm
01:13 AM 73.2°F22.9°C 63.3°F17.4°C 71% 1.1 mph S1.8 kmh S 3.4 mph5.5 kmh 29.81 in1009.5 mb 0.00 in0.0 mm 0.00 in0.0 mm 0.00 in0.0 mm
01:08 AM 73.3°F22.9°C 63.3°F17.4°C 71% 2.2 mph SSW3.5 kmh SSW 3.4 mph5.5 kmh 29.81 in1009.5 mb 0.00 in0.0 mm 0.00 in0.0 mm 0.00 in0.0 mm
01:03 AM 73.4°F23.0°C 63.4°F17.4°C 71% 2.3 mph S3.7 kmh S 3.6 mph5.8 kmh 29.81 in1009.5 mb 0.00 in0.0 mm 0.00 in0.0 mm 0.00 in0.0 mm
12:58 AM 73.4°F23.0°C 63.4°F17.4°C 71% 2.1 mph SSE3.4 kmh SSE 4.3 mph6.9 kmh 29.81 in1009.5 mb 0.00 in0.0 mm 0.00 in0.0 mm 0.00 in0.0 mm
12:53 AM 73.4°F23.0°C 63.4°F17.4°C 71% 2.0 mph S3.2 kmh S 4.3 mph6.9 kmh 29.81 in1009.5 mb 0.00 in0.0 mm 0.00 in0.0 mm 0.00 in0.0 mm
12:48 AM 73.4°F23.0°C 63.4°F17.4°C 71% 2.3 mph S3.7 kmh S 4.7 mph7.6 kmh 29.81 in1009.5 mb 0.00 in0.0 mm 0.00 in0.0 mm 0.00 in0.0 mm
12:43 AM 73.5°F23.1°C 63.5°F17.5°C 71% 2.8 mph S4.5 kmh S 4.7 mph7.6 kmh 29.81 in1009.5 mb 0.00 in0.0 mm 0.00 in0.0 mm 0.00 in0.0 mm
12:38 AM 73.6°F23.1°C 63.6°F17.6°C 71% 3.1 mph S5.0 kmh S 4.7 mph7.6 kmh 29.80 in1009.1 mb 0.00 in0.0 mm 0.00 in0.0 mm 0.00 in0.0 mm
12:33 AM 73.6°F23.1°C 63.6°F17.6°C 71% 2.3 mph S3.7 kmh S 3.6 mph5.8 kmh 29.80 in1009.1 mb 0.00 in0.0 mm 0.00 in0.0 mm 0.00 in0.0 mm
12:28 AM 73.6°F23.1°C 63.3°F17.4°C 70% 2.2 mph S3.5 kmh S 3.6 mph5.8 kmh 29.80 in1009.1 mb 0.00 in0.0 mm 0.00 in0.0 mm 0.00 in0.0 mm
12:23 AM 73.7°F23.2°C 63.2°F17.3°C 70% 1.4 mph S2.3 kmh S 6.5 mph10.5 kmh 29.80 in1009.1 mb 0.00 in0.0 mm 0.00 in0.0 mm 0.00 in0.0 mm
12:18 AM 73.8°F23.2°C 63.3°F17.4°C 70% 2.0 mph S3.2 kmh S 6.5 mph10.5 kmh 29.80 in1009.1 mb 0.00 in0.0 mm 0.00 in0.0 mm 0.00 in0.0 mm
12:13 AM 73.8°F23.2°C 63.3°F17.4°C 70% 2.5 mph S4.0 kmh S 4.9 mph7.9 kmh 29.81 in1009.5 mb 0.00 in0.0 mm 0.00 in0.0 mm 0.00 in0.0 mm
12:08 AM 73.8°F23.2°C 63.3°F17.4°C 70% 2.1 mph S3.4 kmh S 4.3 mph6.9 kmh 29.81 in1009.5 mb 0.00 in0.0 mm 0.00 in0.0 mm 0.00 in0.0 mm
12:03 AM 73.8°F23.2°C 63.3°F17.4°C 70% 1.2 mph S1.9 kmh S 3.6 mph5.8 kmh 29.80 in1009.1 mb 0.00 in0.0 mm 0.00 in0.0 mm 0.00 in0.0 mm